createdAt,value
2018-04-15T00:00:06.533Z,9.60
2018-04-15T00:02:33.348Z,9.60
2018-04-15T00:05:00.409Z,9.60
2018-04-15T00:07:26.749Z,9.50
2018-04-15T00:09:53.129Z,9.50
2018-04-15T00:12:19.517Z,9.50
2018-04-15T00:14:45.894Z,9.80
2018-04-15T00:17:12.842Z,9.50
2018-04-15T00:19:39.165Z,9.30
2018-04-15T00:22:05.540Z,9.20
2018-04-15T00:24:32.662Z,9.20
2018-04-15T00:26:58.996Z,9.10
2018-04-15T00:29:25.305Z,9.00
2018-04-15T00:31:51.624Z,9.10
2018-04-15T00:34:17.948Z,9.10
2018-04-15T00:36:44.269Z,9.10
2018-04-15T00:39:10.577Z,9.10
2018-04-15T00:41:38.638Z,9.10
2018-04-15T00:44:05.710Z,9.00
2018-04-15T00:46:32.090Z,9.00
2018-04-15T00:48:58.413Z,9.10
2018-04-15T00:51:24.777Z,9.20
2018-04-15T00:54:04.105Z,9.20
2018-04-15T00:56:31.241Z,9.30
2018-04-15T00:58:57.590Z,9.20
2018-04-15T01:01:24.708Z,9.10
2018-04-15T01:03:51.041Z,9.10
2018-04-15T01:06:17.364Z,9.10
2018-04-15T01:08:43.689Z,8.90
2018-04-15T01:11:10.641Z,8.90
2018-04-15T01:13:36.981Z,8.80
2018-04-15T01:16:03.333Z,8.80
2018-04-15T01:18:30.679Z,8.70
2018-04-15T01:20:57.772Z,8.80
2018-04-15T01:23:24.161Z,8.80
2018-04-15T01:25:50.493Z,8.80
2018-04-15T01:28:16.820Z,8.80
2018-04-15T01:30:43.156Z,8.80
2018-04-15T01:33:09.502Z,8.70
2018-04-15T01:35:36.569Z,8.60
2018-04-15T01:38:02.911Z,8.60
2018-04-15T01:40:29.301Z,8.60
2018-04-15T01:42:55.641Z,8.50
2018-04-15T01:45:23.737Z,8.50
2018-04-15T01:47:50.064Z,8.40
2018-04-15T01:50:16.419Z,8.40
2018-04-15T01:52:42.733Z,8.30
2018-04-15T01:55:09.089Z,8.20
2018-04-15T01:57:35.408Z,8.10
2018-04-15T02:00:01.765Z,8.10
2018-04-15T02:02:28.089Z,8.00
2018-04-15T02:04:54.424Z,7.90
2018-04-15T02:07:20.801Z,7.90
2018-04-15T02:09:47.864Z,8.00
2018-04-15T02:12:14.201Z,7.90
2018-04-15T02:14:40.541Z,7.80
2018-04-15T02:17:06.897Z,7.90
2018-04-15T02:19:33.282Z,7.90
2018-04-15T02:22:01.370Z,8.00
2018-04-15T02:24:28.749Z,8.00
2018-04-15T02:26:55.097Z,7.90
2018-04-15T02:29:21.425Z,7.90
2018-04-15T02:31:47.757Z,7.80
2018-04-15T02:34:14.085Z,7.70
2018-04-15T02:36:40.413Z,7.80
2018-04-15T02:39:06.759Z,7.90
2018-04-15T02:41:33.109Z,7.90
2018-04-15T02:44:00.233Z,7.80
2018-04-15T02:46:27.300Z,7.70
2018-04-15T02:48:53.620Z,7.70
2018-04-15T02:51:20.499Z,7.70
2018-04-15T02:53:46.825Z,7.60
2018-04-15T02:56:13.934Z,7.50
2018-04-15T02:58:41.301Z,7.50
2018-04-15T03:01:07.644Z,7.50
2018-04-15T03:03:34.730Z,7.50
2018-04-15T03:06:01.080Z,7.50
2018-04-15T03:08:27.437Z,7.50
2018-04-15T03:10:55.278Z,7.40
2018-04-15T03:13:21.594Z,7.30
2018-04-15T03:15:47.934Z,7.30
2018-04-15T03:18:14.265Z,7.30
2018-04-15T03:20:40.608Z,7.30
2018-04-15T03:23:06.924Z,7.10
2018-04-15T03:25:33.273Z,7.20
2018-04-15T03:27:59.601Z,7.20
2018-04-15T03:30:26.925Z,7.20
2018-04-15T03:32:53.245Z,7.20
2018-04-15T03:35:19.563Z,7.20
2018-04-15T03:37:46.644Z,7.40
2018-04-15T03:40:12.977Z,7.30
2018-04-15T03:42:40.325Z,7.30
2018-04-15T03:45:07.141Z,7.20
2018-04-15T03:47:35.228Z,7.40
2018-04-15T03:50:01.552Z,7.30
2018-04-15T03:52:27.868Z,7.40
2018-04-15T03:54:54.931Z,7.40
2018-04-15T03:57:21.252Z,7.40
2018-04-15T03:59:48.313Z,7.50
2018-04-15T04:02:14.656Z,7.50
2018-04-15T04:04:41.000Z,7.50
2018-04-15T04:07:08.357Z,7.50
2018-04-15T04:09:34.682Z,7.50
2018-04-15T04:12:01.565Z,7.50
2018-04-15T04:14:27.889Z,7.40
2018-04-15T04:16:54.252Z,7.40
2018-04-15T04:19:33.529Z,7.40
2018-04-15T04:22:12.084Z,7.30
2018-04-15T04:27:37.653Z,7.20
2018-04-15T04:30:04.004Z,7.20
2018-04-15T04:32:30.312Z,7.30
2018-04-15T04:34:56.645Z,7.30
2018-04-15T04:37:22.987Z,7.30
2018-04-15T04:39:49.306Z,7.30
2018-04-15T04:42:15.736Z,7.40
2018-04-15T04:44:42.082Z,7.40
2018-04-15T04:47:08.405Z,7.60
2018-04-15T04:49:34.720Z,7.60
2018-04-15T04:52:01.061Z,7.60
2018-04-15T04:54:27.392Z,7.50
2018-04-15T04:56:53.709Z,7.40
2018-04-15T04:59:20.765Z,7.30
2018-04-15T05:01:47.097Z,7.20
2018-04-15T05:04:13.411Z,7.30
2018-04-15T05:06:40.488Z,7.30
2018-04-15T05:09:06.809Z,7.30
2018-04-15T05:11:33.153Z,7.30
2018-04-15T05:13:59.487Z,7.30
2018-04-15T05:16:25.824Z,7.40
2018-04-15T05:18:52.165Z,7.40
2018-04-15T05:21:18.473Z,7.50
2018-04-15T05:23:44.816Z,7.60
2018-04-15T05:26:11.138Z,7.60
2018-04-15T05:28:37.448Z,7.70
2018-04-15T05:31:03.764Z,7.70
2018-04-15T05:33:30.820Z,7.70
2018-04-15T05:35:57.892Z,7.90
2018-04-15T05:38:24.224Z,7.90
2018-04-15T05:40:50.562Z,8.10
2018-04-15T05:43:16.887Z,8.30
2018-04-15T05:45:43.204Z,8.40
2018-04-15T05:48:09.545Z,8.50
2018-04-15T05:50:35.865Z,8.60
2018-04-15T05:53:03.261Z,8.60
2018-04-15T05:55:29.585Z,8.70
2018-04-15T05:57:55.904Z,8.70
2018-04-15T06:00:22.253Z,8.90
2018-04-15T06:02:48.605Z,9.00
2018-04-15T06:05:14.951Z,9.20
2018-04-15T06:07:41.280Z,9.10
2018-04-15T06:10:08.352Z,9.40
2018-04-15T06:12:34.688Z,9.40
2018-04-15T06:15:01.021Z,9.40
2018-04-15T06:17:27.356Z,9.40
2018-04-15T06:19:53.685Z,9.50
2018-04-15T06:22:20.001Z,9.50
2018-04-15T06:24:46.365Z,9.40
2018-04-15T06:27:12.745Z,9.30
2018-04-15T06:29:40.472Z,9.70
2018-04-15T06:32:07.593Z,9.60
2018-04-15T06:34:34.109Z,10.00
2018-04-15T06:37:01.261Z,10.60
2018-04-15T06:39:31.204Z,10.60
2018-04-15T06:41:57.520Z,11.00
2018-04-15T06:44:24.623Z,11.40
2018-04-15T06:46:51.241Z,11.30
2018-04-15T06:49:17.649Z,11.50
2018-04-15T06:51:44.710Z,11.90
2018-04-15T06:54:11.057Z,11.90
2018-04-15T06:56:37.378Z,12.00
2018-04-15T06:59:03.713Z,12.20
2018-04-15T07:01:31.099Z,12.50
2018-04-15T07:03:57.433Z,13.00
2018-04-15T07:06:24.525Z,13.60
2018-04-15T07:08:50.873Z,13.60
2018-04-15T07:11:17.206Z,13.90
2018-04-15T07:13:43.544Z,14.20
2018-04-15T07:16:09.881Z,14.50
2018-04-15T07:18:36.202Z,14.70
2018-04-15T07:21:02.575Z,15.10
2018-04-15T07:23:29.658Z,15.20
2018-04-15T07:25:56.037Z,15.10
2018-04-15T07:28:22.361Z,15.30
2018-04-15T07:30:48.713Z,15.30
2018-04-15T07:33:15.029Z,15.40
2018-04-15T07:35:42.525Z,15.50
2018-04-15T07:38:09.852Z,15.60
2018-04-15T07:40:36.163Z,15.70
2018-04-15T07:43:02.484Z,15.50
2018-04-15T07:45:28.809Z,15.30
2018-04-15T07:47:55.177Z,15.30
2018-04-15T07:50:22.475Z,15.60
2018-04-15T07:52:48.784Z,15.90
2018-04-15T07:55:16.900Z,16.60
2018-04-15T07:57:43.225Z,16.60
2018-04-15T08:00:09.581Z,16.70
2018-04-15T08:02:35.908Z,16.70
2018-04-15T08:05:02.244Z,16.80
2018-04-15T08:07:28.553Z,17.10
2018-04-15T08:09:54.880Z,17.50
2018-04-15T08:12:21.204Z,17.80
2018-04-15T08:14:47.965Z,17.80
2018-04-15T08:17:14.322Z,17.80
2018-04-15T08:19:40.614Z,17.90
2018-04-15T08:22:06.950Z,17.80
2018-04-15T08:24:33.272Z,17.90
2018-04-15T08:26:59.592Z,17.90
2018-04-15T08:29:26.935Z,17.80
2018-04-15T08:31:53.258Z,17.60
2018-04-15T08:34:19.600Z,17.50
2018-04-15T08:36:45.980Z,17.40
2018-04-15T08:39:12.313Z,17.30
2018-04-15T08:41:38.676Z,17.30
2018-04-15T08:44:05.069Z,17.40
2018-04-15T08:46:31.367Z,17.20
2018-04-15T08:48:57.668Z,17.20
2018-04-15T08:51:24.730Z,17.40
2018-04-15T08:53:51.048Z,17.40
2018-04-15T08:56:18.093Z,17.50
2018-04-15T08:58:44.404Z,17.50
2018-04-15T09:01:11.708Z,17.80
2018-04-15T09:03:38.041Z,17.80
2018-04-15T09:06:04.377Z,18.00
2018-04-15T09:08:30.705Z,18.20
2018-04-15T09:10:57.021Z,18.90
2018-04-15T09:13:23.341Z,19.30
2018-04-15T09:15:49.680Z,19.50
2018-04-15T09:18:17.069Z,19.50
2018-04-15T09:20:43.380Z,19.50
2018-04-15T09:23:09.751Z,19.60
2018-04-15T09:25:36.052Z,19.80
2018-04-15T09:28:02.384Z,20.30
2018-04-15T09:30:28.734Z,20.80
2018-04-15T09:32:56.073Z,21.00
2018-04-15T09:35:23.387Z,20.90
2018-04-15T09:37:50.288Z,21.10
2018-04-15T09:40:16.811Z,21.10
2018-04-15T09:42:43.133Z,20.70
2018-04-15T09:45:09.449Z,20.50
2018-04-15T09:47:35.812Z,20.40
2018-04-15T09:50:03.656Z,19.60
2018-04-15T09:52:30.044Z,19.70
2018-04-15T09:54:57.093Z,19.50
2018-04-15T09:57:24.145Z,19.60
2018-04-15T09:59:51.203Z,19.60
2018-04-15T10:02:17.632Z,19.60
2018-04-15T10:04:44.009Z,20.00
2018-04-15T10:07:10.474Z,20.40
2018-04-15T10:09:36.789Z,20.70
2018-04-15T10:12:03.704Z,20.90
2018-04-15T10:14:30.045Z,21.50
2018-04-15T10:16:56.387Z,21.70
2018-04-15T10:19:22.774Z,21.90
2018-04-15T10:21:49.816Z,21.30
2018-04-15T10:24:17.071Z,21.40
2018-04-15T10:26:44.146Z,21.60
2018-04-15T10:29:10.495Z,21.60
2018-04-15T10:31:36.849Z,21.80
2018-04-15T10:34:03.836Z,22.10
2018-04-15T10:36:30.196Z,22.20
2018-04-15T10:38:56.542Z,22.30
2018-04-15T10:41:23.868Z,22.20
2018-04-15T10:43:50.198Z,22.20
2018-04-15T10:46:16.518Z,22.50
2018-04-15T10:48:43.608Z,22.50
2018-04-15T10:51:09.921Z,22.40
2018-04-15T10:53:36.241Z,22.40
2018-04-15T10:56:02.567Z,22.40
2018-04-15T10:58:29.641Z,22.60
2018-04-15T11:00:55.985Z,22.60
2018-04-15T11:03:22.408Z,22.60
2018-04-15T11:05:49.294Z,22.70
2018-04-15T11:08:15.617Z,22.60
2018-04-15T11:10:41.953Z,22.50
2018-04-15T11:13:08.282Z,22.50
2018-04-15T11:15:36.096Z,21.80
2018-04-15T11:18:04.198Z,21.80
2018-04-15T11:20:30.517Z,21.80
2018-04-15T11:22:57.657Z,21.80
2018-04-15T11:25:24.019Z,22.00
2018-04-15T11:27:50.384Z,22.00
2018-04-15T11:30:18.189Z,21.80
2018-04-15T11:32:44.501Z,21.70
2018-04-15T11:35:11.645Z,21.90
2018-04-15T11:37:38.712Z,22.10
2018-04-15T11:40:05.784Z,22.10
2018-04-15T11:42:32.857Z,22.20
2018-04-15T11:44:59.185Z,22.10
2018-04-15T11:47:25.504Z,22.50
2018-04-15T11:49:53.593Z,22.70
2018-04-15T11:52:20.976Z,22.70
2018-04-15T11:54:47.285Z,23.00
2018-04-15T11:57:13.640Z,22.90
2018-04-15T11:59:39.977Z,23.10
2018-04-15T12:02:06.307Z,23.10
2018-04-15T12:04:32.653Z,23.00
2018-04-15T12:06:58.974Z,22.90
2018-04-15T12:09:25.403Z,23.10
2018-04-15T12:11:51.662Z,23.20
2018-04-15T12:14:18.726Z,23.60
2018-04-15T12:16:45.784Z,23.70
2018-04-15T12:19:12.097Z,23.60
2018-04-15T12:21:39.161Z,23.60
2018-04-15T12:24:05.545Z,23.60
2018-04-15T12:26:31.877Z,23.50
2018-04-15T12:28:58.211Z,23.50
2018-04-15T12:31:24.517Z,23.70
2018-04-15T12:33:50.853Z,23.90
2018-04-15T12:36:17.201Z,23.90
2018-04-15T12:38:43.548Z,24.20
2018-04-15T12:41:10.595Z,25.30
2018-04-15T12:43:36.934Z,25.30
2018-04-15T12:46:04.042Z,25.90
2018-04-15T12:48:30.345Z,25.80
2018-04-15T12:50:56.700Z,25.90
2018-04-15T12:53:23.029Z,25.80
2018-04-15T12:55:49.353Z,25.70
2018-04-15T12:58:15.656Z,26.10
2018-04-15T13:00:41.961Z,26.40
2018-04-15T13:03:09.033Z,26.00
2018-04-15T13:05:35.880Z,26.00
2018-04-15T13:08:03.231Z,26.00
2018-04-15T13:10:29.560Z,25.60
2018-04-15T13:12:55.870Z,25.40
2018-04-15T13:15:22.924Z,25.20
2018-04-15T13:17:49.986Z,25.30
2018-04-15T13:20:16.357Z,25.30
2018-04-15T13:22:42.661Z,25.40
2018-04-15T13:25:08.962Z,25.50
2018-04-15T13:27:36.047Z,25.40
2018-04-15T13:30:02.422Z,25.40
2018-04-15T13:32:28.793Z,25.10
2018-04-15T13:34:55.117Z,24.80
2018-04-15T13:37:21.461Z,24.70
2018-04-15T13:39:47.785Z,24.60
2018-04-15T13:42:14.098Z,24.60
2018-04-15T13:44:42.208Z,24.50
2018-04-15T13:47:08.512Z,24.60
2018-04-15T13:49:34.859Z,24.50
2018-04-15T13:52:01.194Z,24.90
2018-04-15T13:54:28.587Z,24.90
2018-04-15T13:56:54.918Z,24.80
2018-04-15T13:59:21.248Z,24.70
2018-04-15T14:01:47.577Z,24.70
2018-04-15T14:04:13.888Z,24.20
2018-04-15T14:06:40.208Z,23.90
2018-04-15T14:09:06.554Z,24.00
2018-04-15T14:11:32.968Z,23.80
2018-04-15T14:13:59.794Z,23.70
2018-04-15T14:16:26.122Z,23.30
2018-04-15T14:18:52.437Z,23.20
2018-04-15T14:21:19.529Z,23.20
2018-04-15T14:23:45.865Z,23.20
2018-04-15T14:26:12.264Z,23.00
2018-04-15T14:28:38.580Z,22.90
2018-04-15T14:31:05.654Z,23.20
2018-04-15T14:33:31.968Z,23.20
2018-04-15T14:35:58.700Z,23.00
2018-04-15T14:38:25.760Z,22.70
2018-04-15T14:40:52.081Z,22.70
2018-04-15T14:43:19.133Z,22.50
2018-04-15T14:45:45.534Z,22.50
2018-04-15T14:48:11.958Z,22.50
2018-04-15T14:50:39.804Z,22.60
2018-04-15T14:53:06.180Z,22.50
2018-04-15T14:55:32.452Z,22.50
2018-04-15T14:57:58.761Z,22.50
2018-04-15T15:00:25.085Z,22.50
2018-04-15T15:02:51.405Z,22.10
2018-04-15T15:05:18.538Z,21.70
2018-04-15T15:07:44.865Z,21.60
2018-04-15T15:10:11.234Z,21.50
2018-04-15T15:12:37.552Z,21.30
2018-04-15T15:15:05.157Z,21.00
2018-04-15T15:17:31.480Z,20.90
2018-04-15T15:19:57.867Z,20.90
2018-04-15T15:22:24.983Z,20.60
2018-04-15T15:24:51.302Z,20.60
2018-04-15T15:27:18.402Z,20.40
2018-04-15T15:29:45.453Z,20.40
2018-04-15T15:32:12.537Z,20.30
2018-04-15T15:34:38.861Z,20.20
2018-04-15T15:37:05.213Z,20.20
2018-04-15T15:39:31.533Z,20.20
2018-04-15T15:41:57.862Z,20.00
2018-04-15T15:44:24.188Z,19.90
2018-04-15T15:46:50.517Z,19.70
2018-04-15T15:49:16.908Z,19.50
2018-04-15T15:51:43.965Z,19.10
2018-04-15T15:54:10.349Z,19.10
2018-04-15T15:56:36.662Z,19.10
2018-04-15T15:59:03.086Z,19.20
2018-04-15T16:01:29.403Z,19.00
2018-04-15T16:03:55.743Z,19.00
2018-04-15T16:06:22.053Z,18.70
2018-04-15T16:08:49.133Z,18.50
2018-04-15T16:11:15.456Z,18.50
2018-04-15T16:13:41.801Z,18.60
2018-04-15T16:16:08.206Z,18.60
2018-04-15T16:18:34.527Z,18.50
2018-04-15T16:21:00.948Z,18.40
2018-04-15T16:23:28.032Z,18.30
2018-04-15T16:25:55.387Z,18.30
2018-04-15T16:28:21.757Z,18.10
2018-04-15T16:30:48.069Z,18.20
2018-04-15T16:33:14.392Z,18.20
2018-04-15T16:35:40.720Z,18.20
2018-04-15T16:38:07.037Z,18.20
2018-04-15T16:40:33.354Z,18.10
2018-04-15T16:42:59.714Z,18.00
2018-04-15T16:45:26.121Z,17.90
2018-04-15T16:47:52.507Z,18.00
2018-04-15T16:50:19.588Z,17.90
2018-04-15T16:52:47.657Z,18.00
2018-04-15T16:55:14.716Z,18.00
2018-04-15T16:57:41.023Z,18.00
2018-04-15T17:00:08.124Z,18.00
2018-04-15T17:02:35.453Z,18.00
2018-04-15T17:05:01.765Z,17.90
2018-04-15T17:07:28.821Z,17.80
2018-04-15T17:09:55.129Z,17.80
2018-04-15T17:12:22.177Z,17.80
2018-04-15T17:14:49.253Z,17.80
2018-04-15T17:17:15.564Z,17.80
2018-04-15T17:19:42.616Z,17.70
2018-04-15T17:22:09.778Z,17.70
2018-04-15T17:24:36.125Z,17.70
2018-04-15T17:27:02.441Z,17.60
2018-04-15T17:29:28.813Z,17.60
2018-04-15T17:31:55.193Z,17.70
2018-04-15T17:34:22.240Z,17.50
2018-04-15T17:36:49.314Z,17.30
2018-04-15T17:39:15.688Z,17.20
2018-04-15T17:41:43.803Z,16.80
2018-04-15T17:44:10.139Z,16.80
2018-04-15T17:46:36.468Z,16.80
2018-04-15T17:49:05.091Z,16.90
2018-04-15T17:51:31.425Z,16.90
2018-04-15T17:53:57.771Z,16.90
2018-04-15T17:56:24.125Z,16.90
2018-04-15T17:58:51.321Z,16.60
2018-04-15T18:01:18.359Z,16.40
2018-04-15T18:03:44.681Z,16.40
2018-04-15T18:06:11.010Z,16.30
2018-04-15T18:08:37.320Z,16.30
2018-04-15T18:11:04.402Z,16.40
2018-04-15T18:13:30.709Z,16.40
2018-04-15T18:15:57.045Z,16.50
2018-04-15T18:18:23.366Z,16.50
2018-04-15T18:20:49.709Z,16.50
2018-04-15T18:23:16.025Z,16.40
2018-04-15T18:25:42.612Z,16.40
2018-04-15T18:28:09.123Z,16.30
2018-04-15T18:30:35.415Z,16.30
2018-04-15T18:33:01.812Z,16.20
2018-04-15T18:35:28.217Z,16.10
2018-04-15T18:37:54.561Z,16.00
2018-04-15T18:40:20.901Z,16.00
2018-04-15T18:42:47.274Z,15.70
2018-04-15T18:45:14.381Z,15.40
2018-04-15T18:47:40.717Z,15.40
2018-04-15T18:50:08.124Z,15.30
2018-04-15T18:52:35.184Z,15.20
2018-04-15T18:55:01.546Z,15.10
2018-04-15T18:57:27.901Z,15.20
2018-04-15T19:00:01.802Z,15.10
2018-04-15T19:02:28.160Z,15.00
2018-04-15T19:04:55.267Z,15.00
2018-04-15T19:07:21.730Z,14.90
2018-04-15T19:09:48.098Z,14.90
2018-04-15T19:12:14.670Z,14.90
2018-04-15T19:14:41.017Z,15.10
2018-04-15T19:17:07.365Z,15.20
2018-04-15T19:19:33.765Z,15.30
2018-04-15T19:22:01.148Z,15.10
2018-04-15T19:24:27.513Z,15.20
2018-04-15T19:26:54.629Z,15.20
2018-04-15T19:29:21.028Z,15.10
2018-04-15T19:31:47.414Z,15.20
2018-04-15T19:34:14.497Z,15.20
2018-04-15T19:36:41.906Z,15.20
2018-04-15T19:39:08.225Z,15.20
2018-04-15T19:41:34.568Z,15.40
2018-04-15T19:44:00.981Z,15.40
2018-04-15T19:46:27.349Z,15.40
2018-04-15T19:48:54.492Z,15.10
2018-04-15T19:51:21.613Z,15.00
2018-04-15T19:53:47.966Z,15.00
2018-04-15T19:56:15.094Z,14.80
2018-04-15T19:58:42.447Z,14.80
2018-04-15T20:01:08.771Z,14.80
2018-04-15T20:03:35.137Z,14.80
2018-04-15T20:06:02.248Z,14.80
2018-04-15T20:08:28.643Z,14.80
2018-04-15T20:10:55.696Z,14.90
2018-04-15T20:13:22.072Z,14.90
2018-04-15T20:15:48.413Z,14.90
2018-04-15T20:18:14.780Z,14.90
2018-04-15T20:20:41.137Z,14.70
2018-04-15T20:23:07.473Z,14.70
2018-04-15T20:25:33.817Z,14.70
2018-04-15T20:28:00.146Z,14.80
2018-04-15T20:30:26.484Z,14.70
2018-04-15T20:32:52.813Z,14.60
2018-04-15T20:35:19.143Z,14.50
2018-04-15T20:37:45.465Z,14.30
2018-04-15T20:40:12.840Z,14.30
2018-04-15T20:42:39.157Z,14.40
2018-04-15T20:45:05.505Z,14.50
2018-04-15T20:47:31.841Z,14.40
2018-04-15T20:49:58.180Z,14.40
2018-04-15T20:52:24.512Z,14.40
2018-04-15T20:54:50.875Z,14.50
2018-04-15T20:57:17.208Z,14.70
2018-04-15T20:59:43.537Z,14.80
2018-04-15T21:02:09.865Z,14.80
2018-04-15T21:04:36.256Z,14.80
2018-04-15T21:07:02.638Z,14.80
2018-04-15T21:09:29.005Z,14.80
2018-04-15T21:11:55.402Z,14.70
2018-04-15T21:14:22.225Z,14.60
2018-04-15T21:19:20.064Z,14.40
2018-04-15T21:21:47.133Z,14.30
2018-04-15T21:24:14.865Z,14.30
2018-04-15T21:26:41.200Z,14.30
2018-04-15T21:29:07.537Z,14.10
2018-04-15T21:31:35.369Z,14.10
2018-04-15T21:34:05.970Z,14.00
2018-04-15T21:36:32.621Z,14.10
2018-04-15T21:38:59.005Z,14.10
2018-04-15T21:41:25.369Z,14.00
2018-04-15T21:43:52.481Z,13.70
2018-04-15T21:46:18.839Z,13.70
2018-04-15T21:48:45.225Z,13.70
2018-04-15T21:51:13.350Z,13.70
2018-04-15T21:53:39.668Z,13.70
2018-04-15T21:56:06.051Z,13.70
2018-04-15T21:58:33.421Z,13.60
2018-04-15T22:01:03.730Z,13.60
2018-04-15T22:03:30.091Z,13.70
2018-04-15T22:05:56.445Z,13.70
2018-04-15T22:08:23.794Z,13.80
2018-04-15T22:10:55.340Z,13.80
2018-04-15T22:13:21.702Z,13.90
2018-04-15T22:15:48.093Z,13.90
2018-04-15T22:18:16.188Z,14.00
2018-04-15T22:20:43.308Z,13.90
2018-04-15T22:23:09.642Z,13.90
2018-04-15T22:25:36.070Z,13.70
2018-04-15T22:28:02.425Z,13.70
2018-04-15T22:30:30.255Z,13.80
2018-04-15T22:32:57.344Z,13.90
2018-04-15T22:35:23.701Z,13.90
2018-04-15T22:37:50.045Z,13.80
2018-04-15T22:40:16.381Z,13.80
2018-04-15T22:42:43.729Z,13.80
2018-04-15T22:45:10.060Z,13.90
2018-04-15T22:47:36.436Z,13.90
2018-04-15T22:50:10.782Z,13.90
2018-04-15T22:52:37.120Z,13.90
2018-04-15T22:55:03.512Z,14.00
2018-04-15T22:57:30.584Z,14.00
2018-04-15T22:59:56.910Z,13.90
2018-04-15T23:02:23.217Z,14.10
2018-04-15T23:04:50.289Z,14.10
2018-04-15T23:07:16.617Z,14.00
2018-04-15T23:09:42.970Z,14.00
2018-04-15T23:12:09.345Z,14.00
2018-04-15T23:14:35.705Z,14.00
2018-04-15T23:17:02.101Z,13.90
2018-04-15T23:19:30.195Z,13.60
2018-04-15T23:21:57.278Z,13.50
2018-04-15T23:24:23.632Z,13.50
2018-04-15T23:26:49.957Z,13.40
2018-04-15T23:29:16.282Z,13.40
2018-04-15T23:31:42.613Z,13.30
2018-04-15T23:34:08.982Z,13.30
2018-04-15T23:36:35.317Z,13.30
2018-04-15T23:39:02.441Z,13.40
2018-04-15T23:41:29.753Z,13.30
2018-04-15T23:43:56.088Z,13.40
2018-04-15T23:46:22.434Z,13.40
2018-04-15T23:48:48.774Z,13.50
2018-04-15T23:51:15.108Z,13.60
2018-04-15T23:53:42.095Z,13.70
2018-04-15T23:56:09.171Z,13.70
2018-04-15T23:58:35.497Z,13.70
